createdAt,value
2023-05-12T00:00:49.062Z,97984.00
2023-05-12T00:03:17.279Z,97988.41
2023-05-12T00:05:44.940Z,97987.44
2023-05-12T00:08:12.668Z,97987.44
2023-05-12T00:10:40.405Z,97986.84
2023-05-12T00:13:10.227Z,97990.00
2023-05-12T00:15:38.640Z,97981.38
2023-05-12T00:18:06.593Z,97986.03
2023-05-12T00:20:34.356Z,97979.50
2023-05-12T00:23:01.980Z,97982.78
2023-05-12T00:25:29.666Z,97989.38
2023-05-12T00:27:57.342Z,97986.66
2023-05-12T00:30:26.697Z,97978.72
2023-05-12T00:32:54.475Z,97981.03
2023-05-12T00:35:22.364Z,97987.53
2023-05-12T00:37:50.101Z,97983.66
2023-05-12T00:40:19.874Z,97976.72
2023-05-12T00:42:47.926Z,97976.63
2023-05-12T00:45:15.607Z,97981.38
2023-05-12T00:47:46.730Z,97977.31
2023-05-12T00:50:15.640Z,97973.44
2023-05-12T00:52:43.723Z,97978.19
2023-05-12T00:55:11.528Z,97979.78
2023-05-12T00:57:40.009Z,97973.53
2023-05-12T01:00:09.306Z,97971.94
2023-05-12T01:02:37.741Z,97969.75
2023-05-12T01:05:07.580Z,97976.06
2023-05-12T01:07:36.529Z,97970.44
2023-05-12T01:10:07.946Z,97973.34
2023-05-12T01:12:36.245Z,97973.63
2023-05-12T01:15:05.030Z,97968.16
2023-05-12T01:17:35.082Z,97968.88
2023-05-12T01:20:13.716Z,97965.00
2023-05-12T01:22:54.157Z,97965.69
2023-05-12T01:25:28.363Z,97969.75
2023-05-12T01:27:58.358Z,97962.34
2023-05-12T01:30:27.026Z,97964.28
2023-05-12T01:32:55.073Z,97966.72
2023-05-12T01:35:22.892Z,97966.72
2023-05-12T01:37:52.011Z,97963.16
2023-05-12T01:40:19.917Z,97961.97
2023-05-12T01:42:47.824Z,97966.56
2023-05-12T01:45:17.103Z,97961.81
2023-05-12T01:47:45.201Z,97959.63
2023-05-12T01:50:12.914Z,97965.00
2023-05-12T01:52:40.627Z,97964.09
2023-05-12T01:55:09.178Z,97965.69
2023-05-12T01:57:36.958Z,97965.00
2023-05-12T02:00:05.281Z,97961.03
2023-05-12T02:02:34.651Z,97955.56
2023-05-12T02:05:02.370Z,97960.03
2023-05-12T02:07:30.087Z,97965.50
2023-05-12T02:09:58.144Z,97960.94
2023-05-12T02:12:25.830Z,97951.59
2023-05-12T02:14:53.617Z,97956.16
2023-05-12T02:17:21.336Z,97961.03
2023-05-12T02:19:51.229Z,97964.00
2023-05-12T02:22:19.070Z,97958.44
2023-05-12T02:24:47.017Z,97957.06
2023-05-12T02:27:14.792Z,97951.50
2023-05-12T02:29:43.087Z,97961.38
2023-05-12T02:32:11.328Z,97958.84
2023-05-12T02:34:39.826Z,97953.44
2023-05-12T02:37:10.315Z,97957.06
2023-05-12T02:39:38.319Z,97950.44
2023-05-12T02:42:07.153Z,97954.84
2023-05-12T02:44:37.592Z,97948.31
2023-05-12T02:47:05.860Z,97956.88
2023-05-12T02:49:34.316Z,97952.28
2023-05-12T02:52:04.871Z,97956.88
2023-05-12T02:54:36.811Z,97952.91
2023-05-12T02:57:06.508Z,97947.91
2023-05-12T02:59:37.045Z,97949.31
2023-05-12T03:02:05.619Z,97951.34
2023-05-12T03:04:35.199Z,97939.97
2023-05-12T03:07:02.880Z,97938.19
2023-05-12T03:09:31.694Z,97939.97
2023-05-12T03:12:00.825Z,97945.88
2023-05-12T03:14:28.945Z,97943.94
2023-05-12T03:16:56.674Z,97944.88
2023-05-12T03:19:24.460Z,97942.25
2023-05-12T03:21:52.903Z,97937.50
2023-05-12T03:24:20.730Z,97939.25
2023-05-12T03:26:48.652Z,97940.06
2023-05-12T03:29:17.655Z,97934.50
2023-05-12T03:31:46.101Z,97938.13
2023-05-12T03:34:13.938Z,97951.78
2023-05-12T03:36:42.210Z,97939.25
2023-05-12T03:39:12.286Z,97941.47
2023-05-12T03:41:41.259Z,97939.97
2023-05-12T03:44:10.045Z,97939.97
2023-05-12T03:46:39.481Z,97940.13
2023-05-12T03:49:07.250Z,97935.53
2023-05-12T03:51:35.440Z,97934.25
2023-05-12T03:54:03.794Z,97931.34
2023-05-12T03:56:31.684Z,97932.84
2023-05-12T03:59:00.296Z,97935.31
2023-05-12T04:01:30.957Z,97942.69
2023-05-12T04:04:01.671Z,97935.66
2023-05-12T04:06:30.095Z,97934.31
2023-05-12T04:08:58.169Z,97947.09
2023-05-12T04:11:28.039Z,97941.56
2023-05-12T04:13:56.969Z,97944.19
2023-05-12T04:16:25.041Z,97938.38
2023-05-12T04:18:53.068Z,97948.75
2023-05-12T04:21:22.902Z,97943.16
2023-05-12T04:23:56.290Z,97946.56
2023-05-12T04:26:24.900Z,97940.84
2023-05-12T04:28:53.365Z,97943.28
2023-05-12T04:31:21.228Z,97956.25
2023-05-12T04:33:52.116Z,97949.63
2023-05-12T04:36:27.616Z,97955.66
2023-05-12T04:38:57.046Z,97952.72
2023-05-12T04:41:24.750Z,97950.19
2023-05-12T04:46:25.401Z,97957.94
2023-05-12T04:48:53.688Z,97965.78
2023-05-12T04:51:25.093Z,97958.28
2023-05-12T04:53:54.166Z,97955.22
2023-05-12T04:56:23.897Z,97956.34
2023-05-12T04:58:53.556Z,97954.94
2023-05-12T05:01:22.159Z,97960.75
2023-05-12T05:03:52.129Z,97956.44
2023-05-12T05:06:22.418Z,97965.75
2023-05-12T05:08:58.731Z,97958.38
2023-05-12T05:11:27.109Z,97962.84
2023-05-12T05:13:57.401Z,97968.50
2023-05-12T05:16:25.730Z,97971.75
2023-05-12T05:18:55.164Z,97976.59
2023-05-12T05:21:22.973Z,97968.38
2023-05-12T05:23:52.752Z,97969.28
2023-05-12T05:26:21.495Z,97975.09
2023-05-12T05:28:49.994Z,97983.03
2023-05-12T05:31:19.556Z,97979.75
2023-05-12T05:33:50.446Z,97973.59
2023-05-12T05:36:18.251Z,97976.19
2023-05-12T05:38:49.775Z,97971.63
2023-05-12T05:41:20.869Z,97975.66
2023-05-12T05:43:48.997Z,97974.88
2023-05-12T05:46:17.304Z,97975.00
2023-05-12T05:48:46.018Z,97979.63
2023-05-12T05:51:15.767Z,97986.44
2023-05-12T05:53:44.262Z,97978.50
2023-05-12T05:56:12.998Z,97991.31
2023-05-12T05:58:44.666Z,97987.03
2023-05-12T06:01:13.177Z,97991.75
2023-05-12T06:03:41.597Z,97985.53
2023-05-12T06:06:09.947Z,97992.06
2023-05-12T06:08:39.796Z,97999.03
2023-05-12T06:11:09.929Z,97995.28
2023-05-12T06:13:37.912Z,97994.66
2023-05-12T06:16:08.156Z,97995.84
2023-05-12T06:18:38.291Z,98002.97
2023-05-12T06:21:08.569Z,97999.06
2023-05-12T06:23:36.768Z,98000.84
2023-05-12T06:26:04.703Z,98006.63
2023-05-12T06:28:32.558Z,98005.34
2023-05-12T06:31:00.699Z,98017.34
2023-05-12T06:33:31.101Z,98014.63
2023-05-12T06:36:04.636Z,98010.69
2023-05-12T06:38:32.440Z,98020.72
2023-05-12T06:41:05.906Z,98015.97
2023-05-12T06:43:34.698Z,98024.63
2023-05-12T06:46:03.886Z,98021.88
2023-05-12T06:48:36.064Z,98023.03
2023-05-12T06:51:04.863Z,98027.06
2023-05-12T06:53:37.483Z,98027.06
2023-05-12T06:56:08.086Z,98018.66
2023-05-12T06:58:36.259Z,98020.16
2023-05-12T07:01:04.252Z,98017.88
2023-05-12T07:03:34.669Z,98025.78
2023-05-12T07:06:02.428Z,98017.31
2023-05-12T07:08:30.413Z,98030.56
2023-05-12T07:11:00.670Z,98025.97
2023-05-12T07:13:29.055Z,98032.31
2023-05-12T07:15:56.778Z,98031.97
2023-05-12T07:18:24.509Z,98032.16
2023-05-12T07:20:54.044Z,98033.03
2023-05-12T07:23:21.852Z,98032.31
2023-05-12T07:25:49.642Z,98028.50
2023-05-12T07:28:17.465Z,98028.66
2023-05-12T07:30:45.201Z,98027.53
2023-05-12T07:33:12.911Z,98037.94
2023-05-12T07:35:40.898Z,98033.03
2023-05-12T07:38:10.528Z,98031.50
2023-05-12T07:40:38.177Z,98027.53
2023-05-12T07:43:05.940Z,98040.25
2023-05-12T07:45:33.643Z,98030.53
2023-05-12T07:48:01.547Z,98031.09
2023-05-12T07:50:29.410Z,98034.63
2023-05-12T07:52:57.232Z,98032.31
2023-05-12T07:55:26.701Z,98034.91
2023-05-12T07:57:54.517Z,98040.50
2023-05-12T08:00:22.966Z,98040.50
2023-05-12T08:02:51.151Z,98047.91
2023-05-12T08:05:19.548Z,98047.75
2023-05-12T08:07:47.529Z,98043.09
2023-05-12T08:10:15.378Z,98047.72
2023-05-12T08:12:44.593Z,98048.63
2023-05-12T08:15:12.466Z,98050.56
2023-05-12T08:17:40.250Z,98044.84
2023-05-12T08:20:09.147Z,98047.72
2023-05-12T08:22:39.539Z,98051.72
2023-05-12T08:25:10.360Z,98047.97
2023-05-12T08:27:40.438Z,98046.72
2023-05-12T08:30:10.938Z,98047.84
2023-05-12T08:32:38.937Z,98055.00
2023-05-12T08:35:07.522Z,98057.31
2023-05-12T08:37:35.374Z,98059.66
2023-05-12T08:40:04.257Z,98054.69
2023-05-12T08:42:43.816Z,98057.06
2023-05-12T08:45:14.792Z,98056.91
2023-05-12T08:47:46.610Z,98061.31
2023-05-12T08:50:18.467Z,98060.13
2023-05-12T08:52:46.615Z,98059.25
2023-05-12T08:55:15.436Z,98059.97
2023-05-12T08:57:48.273Z,98060.84
2023-05-12T09:00:20.270Z,98066.22
2023-05-12T09:02:54.539Z,98070.38
2023-05-12T09:05:23.342Z,98071.31
2023-05-12T09:07:54.599Z,98075.78
2023-05-12T09:10:34.351Z,98067.38
2023-05-12T09:13:05.719Z,98080.88
2023-05-12T09:15:40.855Z,98076.22
2023-05-12T09:18:08.699Z,98075.91
2023-05-12T09:20:36.953Z,98079.59
2023-05-12T09:23:17.511Z,98082.00
2023-05-12T09:25:46.959Z,98079.56
2023-05-12T09:28:15.831Z,98085.81
2023-05-12T09:30:44.952Z,98086.59
2023-05-12T09:33:13.892Z,98083.69
2023-05-12T09:35:43.336Z,98077.59
2023-05-12T09:38:13.275Z,98077.19
2023-05-12T09:40:41.368Z,98078.97
2023-05-12T09:43:11.528Z,98081.78
2023-05-12T09:45:40.523Z,98085.38
2023-05-12T09:48:21.216Z,98076.94
2023-05-12T09:50:51.104Z,98085.63
2023-05-12T09:53:22.910Z,98075.97
2023-05-12T09:55:50.873Z,98074.28
2023-05-12T09:58:20.938Z,98079.25
2023-05-12T10:03:23.811Z,98080.88
2023-05-12T10:05:55.562Z,98078.19
2023-05-12T10:08:26.580Z,98068.44
2023-05-12T10:10:57.514Z,98067.44
2023-05-12T10:13:26.311Z,98074.13
2023-05-12T10:15:59.701Z,98077.34
2023-05-12T10:18:29.208Z,98060.63
2023-05-12T10:20:57.703Z,98072.72
2023-05-12T10:23:27.653Z,98074.53
2023-05-12T10:25:58.570Z,98063.41
2023-05-12T10:28:26.325Z,98065.34
2023-05-12T10:30:54.788Z,98070.03
2023-05-12T10:33:22.801Z,98070.78
2023-05-12T10:35:53.364Z,98078.31
2023-05-12T10:38:21.140Z,98072.06
2023-05-12T10:40:58.014Z,98067.44
2023-05-12T10:43:27.505Z,98077.44
2023-05-12T10:46:08.820Z,98081.75
2023-05-12T10:48:38.194Z,98077.38
2023-05-12T10:51:11.861Z,98090.22
2023-05-12T10:53:49.883Z,98088.66
2023-05-12T10:56:25.035Z,98084.97
2023-05-12T10:59:14.492Z,98080.25
2023-05-12T11:01:44.561Z,98086.19
2023-05-12T11:04:17.105Z,98089.94
2023-05-12T11:06:47.184Z,98090.88
2023-05-12T11:09:17.509Z,98086.13
2023-05-12T11:11:45.871Z,98086.66
2023-05-12T11:14:14.376Z,98092.22
2023-05-12T11:16:45.534Z,98077.31
2023-05-12T11:19:13.893Z,98088.59
2023-05-12T11:21:42.027Z,98091.78
2023-05-12T11:24:14.576Z,98094.13
2023-05-12T11:26:42.512Z,98092.69
2023-05-12T11:29:10.274Z,98101.47
2023-05-12T11:31:39.303Z,98100.38
2023-05-12T11:34:13.017Z,98102.69
2023-05-12T11:36:43.208Z,98100.72
2023-05-12T11:39:17.500Z,98098.84
2023-05-12T11:41:45.975Z,98097.09
2023-05-12T11:44:14.916Z,98101.53
2023-05-12T11:46:42.678Z,98099.44
2023-05-12T11:49:13.381Z,98100.97
2023-05-12T11:51:44.551Z,98100.19
2023-05-12T11:54:12.601Z,98105.50
2023-05-12T11:56:49.137Z,98098.06
2023-05-12T11:59:28.143Z,98103.56
2023-05-12T12:01:55.925Z,98105.41
2023-05-12T12:04:36.905Z,98109.03
2023-05-12T12:07:05.432Z,98104.69
2023-05-12T12:09:34.874Z,98106.41
2023-05-12T12:12:06.301Z,98114.16
2023-05-12T12:14:34.934Z,98110.63
2023-05-12T12:17:03.086Z,98113.34
2023-05-12T12:19:31.025Z,98119.91
2023-05-12T12:21:59.370Z,98116.03
2023-05-12T12:24:27.397Z,98127.44
2023-05-12T12:26:55.116Z,98125.59
2023-05-12T12:29:26.150Z,98129.94
2023-05-12T12:31:53.860Z,98138.38
2023-05-12T12:34:21.598Z,98129.81
2023-05-12T12:36:49.355Z,98134.66
2023-05-12T12:39:19.695Z,98136.75
2023-05-12T12:41:48.378Z,98132.38
2023-05-12T12:44:16.415Z,98127.38
2023-05-12T12:46:45.731Z,98140.81
2023-05-12T12:49:13.845Z,98139.72
2023-05-12T12:51:46.224Z,98139.41
2023-05-12T12:54:16.021Z,98140.38
2023-05-12T12:56:44.319Z,98138.69
2023-05-12T12:59:12.870Z,98136.25
2023-05-12T13:01:40.864Z,98141.97
2023-05-12T13:04:09.942Z,98145.41
2023-05-12T13:06:37.850Z,98141.53
2023-05-12T13:09:05.665Z,98143.03
2023-05-12T13:11:34.051Z,98138.06
2023-05-12T13:14:04.436Z,98139.13
2023-05-12T13:16:32.401Z,98134.03
2023-05-12T13:19:00.428Z,98135.94
2023-05-12T13:21:29.719Z,98140.72
2023-05-12T13:23:57.664Z,98143.44
2023-05-12T13:26:25.394Z,98139.16
2023-05-12T13:28:53.546Z,98148.53
2023-05-12T13:31:21.474Z,98154.31
2023-05-12T13:33:49.314Z,98145.41
2023-05-12T13:36:17.649Z,98145.75
2023-05-12T13:38:46.752Z,98149.31
2023-05-12T13:41:14.718Z,98152.91
2023-05-12T13:43:42.347Z,98144.63
2023-05-12T13:46:10.452Z,98148.94
2023-05-12T13:48:40.501Z,98148.25
2023-05-12T13:51:08.740Z,98153.47
2023-05-12T13:53:38.578Z,98148.50
2023-05-12T13:56:08.742Z,98144.91
2023-05-12T13:58:36.606Z,98152.91
2023-05-12T14:01:05.000Z,98147.53
2023-05-12T14:03:33.432Z,98145.94
2023-05-12T14:06:01.158Z,98154.03
2023-05-12T14:08:29.205Z,98145.34
2023-05-12T14:10:58.509Z,98158.63
2023-05-12T14:13:27.893Z,98146.38
2023-05-12T14:15:56.150Z,98149.69
2023-05-12T14:18:25.140Z,98143.44
2023-05-12T14:20:53.271Z,98139.00
2023-05-12T14:23:21.060Z,98154.66
2023-05-12T14:25:48.796Z,98153.06
2023-05-12T14:28:16.759Z,98143.13
2023-05-12T14:30:46.133Z,98142.66
2023-05-12T14:33:13.967Z,98153.16
2023-05-12T14:35:43.209Z,98155.88
2023-05-12T14:38:12.768Z,98149.19
2023-05-12T14:40:40.930Z,98147.72
2023-05-12T14:43:08.757Z,98156.41
2023-05-12T14:45:36.570Z,98156.22
2023-05-12T14:48:06.567Z,98155.59
2023-05-12T14:50:34.407Z,98158.88
2023-05-12T14:53:02.213Z,98149.13
2023-05-12T14:55:30.092Z,98154.88
2023-05-12T14:57:58.056Z,98153.16
2023-05-12T15:00:26.249Z,98159.81
2023-05-12T15:02:53.960Z,98151.94
2023-05-12T15:05:29.678Z,98152.59
2023-05-12T15:08:03.969Z,98154.03
2023-05-12T15:10:31.969Z,98158.41
2023-05-12T15:12:59.688Z,98157.44
2023-05-12T15:15:27.645Z,98160.53
2023-05-12T15:17:55.475Z,98159.88
2023-05-12T15:20:24.621Z,98159.25
2023-05-12T15:22:54.606Z,98160.34
2023-05-12T15:25:32.471Z,98155.22
2023-05-12T15:28:01.155Z,98156.13
2023-05-12T15:30:29.245Z,98156.88
2023-05-12T15:32:57.051Z,98157.81
2023-05-12T15:35:27.839Z,98164.84
2023-05-12T15:37:55.636Z,98165.53
2023-05-12T15:40:23.324Z,98164.69
2023-05-12T15:42:51.037Z,98161.31
2023-05-12T15:45:19.425Z,98163.22
2023-05-12T15:47:47.785Z,98166.53
2023-05-12T15:50:19.752Z,98153.66
2023-05-12T15:52:49.579Z,98144.41
2023-05-12T15:55:18.153Z,98146.81
2023-05-12T15:57:46.718Z,98145.84
2023-05-12T16:00:16.025Z,98147.53
2023-05-12T16:02:44.101Z,98149.81
2023-05-12T16:05:13.073Z,98151.75
2023-05-12T16:07:42.804Z,98146.81
2023-05-12T16:10:14.126Z,98143.09
2023-05-12T16:12:43.761Z,98146.88
2023-05-12T16:15:12.670Z,98149.06
2023-05-12T16:17:40.833Z,98143.56
2023-05-12T16:20:12.088Z,98130.91
2023-05-12T16:22:40.336Z,98129.44
2023-05-12T16:25:08.947Z,98130.97
2023-05-12T16:27:38.896Z,98135.84
2023-05-12T16:30:09.397Z,98133.88
2023-05-12T16:32:37.214Z,98130.97
2023-05-12T16:35:05.850Z,98124.00
2023-05-12T16:37:35.620Z,98125.59
2023-05-12T16:40:04.876Z,98129.41
2023-05-12T16:42:33.189Z,98133.09
2023-05-12T16:45:02.366Z,98128.75
2023-05-12T16:47:30.499Z,98132.56
2023-05-12T16:49:59.644Z,98134.91
2023-05-12T16:52:29.379Z,98145.97
2023-05-12T16:54:57.414Z,98145.16
2023-05-12T16:57:25.670Z,98137.75
2023-05-12T16:59:53.693Z,98143.66
2023-05-12T17:02:23.160Z,98132.53
2023-05-12T17:04:53.634Z,98134.84
2023-05-12T17:07:21.391Z,98136.41
2023-05-12T17:09:49.111Z,98155.22
2023-05-12T17:12:16.924Z,98150.47
2023-05-12T17:14:50.244Z,98145.06
2023-05-12T17:17:25.229Z,98149.63
2023-05-12T17:19:54.456Z,98145.66
2023-05-12T17:22:22.514Z,98152.81
2023-05-12T17:24:51.290Z,98155.66
2023-05-12T17:27:22.235Z,98165.38
2023-05-12T17:29:50.130Z,98157.88
2023-05-12T17:32:18.878Z,98166.13
2023-05-12T17:34:50.402Z,98163.06
2023-05-12T17:37:19.842Z,98168.13
2023-05-12T17:39:47.969Z,98165.00
2023-05-12T17:42:16.073Z,98166.00
2023-05-12T17:44:44.370Z,98168.44
2023-05-12T17:47:14.268Z,98167.91
2023-05-12T17:49:43.895Z,98176.94
2023-05-12T17:52:14.783Z,98175.97
2023-05-12T17:54:42.760Z,98178.38
2023-05-12T17:57:10.924Z,98176.28
2023-05-12T17:59:38.709Z,98163.28
2023-05-12T18:02:06.654Z,98174.69
2023-05-12T18:04:38.538Z,98178.16
2023-05-12T18:07:07.016Z,98175.34
2023-05-12T18:09:36.152Z,98185.56
2023-05-12T18:12:05.656Z,98183.53
2023-05-12T18:14:34.858Z,98185.91
2023-05-12T18:17:05.312Z,98192.13
2023-05-12T18:19:33.804Z,98188.94
2023-05-12T18:22:02.313Z,98191.16
2023-05-12T18:24:30.837Z,98195.53
2023-05-12T18:27:03.975Z,98193.88
2023-05-12T18:29:32.962Z,98195.81
2023-05-12T18:32:01.222Z,98200.50
2023-05-12T18:34:30.138Z,98203.50
2023-05-12T18:36:58.148Z,98201.81
2023-05-12T18:39:27.914Z,98208.03
2023-05-12T18:41:55.850Z,98214.97
2023-05-12T18:44:25.082Z,98214.97
2023-05-12T18:46:52.904Z,98218.03
2023-05-12T18:49:21.707Z,98221.88
2023-05-12T18:51:49.596Z,98218.69
2023-05-12T18:54:17.600Z,98221.78
2023-05-12T18:56:47.907Z,98223.69
2023-05-12T18:59:17.768Z,98222.44
2023-05-12T19:01:50.806Z,98227.91
2023-05-12T19:04:22.076Z,98235.53
2023-05-12T19:06:52.051Z,98240.25
2023-05-12T19:12:15.055Z,98245.22
2023-05-12T19:14:44.615Z,98244.78
2023-05-12T19:17:14.769Z,98250.25
2023-05-12T19:19:50.433Z,98250.97
2023-05-12T19:22:18.491Z,98246.56
2023-05-12T19:24:49.190Z,98256.22
2023-05-12T19:27:20.461Z,98257.63
2023-05-12T19:29:52.600Z,98257.63
2023-05-12T19:32:28.693Z,98263.81
2023-05-12T19:35:02.684Z,98256.19
2023-05-12T19:37:33.311Z,98260.72
2023-05-12T19:40:04.591Z,98257.19
2023-05-12T19:42:36.642Z,98256.47
2023-05-12T19:45:07.784Z,98255.28
2023-05-12T19:47:42.409Z,98250.59
2023-05-12T19:50:12.239Z,98256.00
2023-05-12T19:52:42.382Z,98260.69
2023-05-12T19:55:19.830Z,98265.38
2023-05-12T19:57:52.793Z,98263.06
2023-05-12T20:00:22.344Z,98263.16
2023-05-12T20:02:54.225Z,98262.34
2023-05-12T20:05:22.458Z,98266.97
2023-05-12T20:07:51.088Z,98272.34
2023-05-12T20:10:19.748Z,98262.94
2023-05-12T20:12:53.895Z,98275.13
2023-05-12T20:15:22.112Z,98272.69
2023-05-12T20:17:51.429Z,98278.06
2023-05-12T20:20:19.382Z,98274.81
2023-05-12T20:22:48.123Z,98269.97
2023-05-12T20:25:17.798Z,98282.41
2023-05-12T20:27:48.855Z,98290.09
2023-05-12T20:30:16.872Z,98281.34
2023-05-12T20:32:44.929Z,98279.41
2023-05-12T20:35:14.121Z,98283.09
2023-05-12T20:37:42.244Z,98282.44
2023-05-12T20:40:11.134Z,98284.44
2023-05-12T20:42:39.089Z,98280.84
2023-05-12T20:45:08.736Z,98284.50
2023-05-12T20:47:37.854Z,98278.13
2023-05-12T20:50:06.508Z,98278.84
2023-05-12T20:52:38.416Z,98277.97
2023-05-12T20:55:09.074Z,98271.00
2023-05-12T20:57:37.842Z,98274.78
2023-05-12T21:00:07.566Z,98269.66
2023-05-12T21:02:35.609Z,98275.50
2023-05-12T21:05:06.735Z,98268.22
2023-05-12T21:07:36.155Z,98269.13
2023-05-12T21:10:09.205Z,98267.81
2023-05-12T21:12:37.771Z,98272.03
2023-05-12T21:15:11.324Z,98279.00
2023-05-12T21:17:45.255Z,98280.84
2023-05-12T21:20:21.597Z,98277.22
2023-05-12T21:22:51.101Z,98279.94
2023-05-12T21:25:19.904Z,98280.69
2023-05-12T21:27:49.614Z,98280.00
2023-05-12T21:30:21.263Z,98281.38
2023-05-12T21:32:53.157Z,98275.06
2023-05-12T21:35:24.690Z,98272.75
2023-05-12T21:37:55.694Z,98265.72
2023-05-12T21:40:24.080Z,98271.25
2023-05-12T21:43:07.145Z,98277.06
2023-05-12T21:45:37.233Z,98271.41
2023-05-12T21:48:06.409Z,98263.00
2023-05-12T21:50:35.654Z,98271.91
2023-05-12T21:53:08.503Z,98270.47
2023-05-12T21:55:36.481Z,98277.63
2023-05-12T21:58:04.640Z,98285.84
2023-05-12T22:00:32.865Z,98282.75
2023-05-12T22:03:01.198Z,98287.34
2023-05-12T22:05:34.203Z,98272.44
2023-05-12T22:08:02.302Z,98282.34
2023-05-12T22:10:37.571Z,98286.34
2023-05-12T22:13:05.921Z,98278.59
2023-05-12T22:15:35.146Z,98284.75
2023-05-12T22:18:05.511Z,98285.91
2023-05-12T22:20:33.545Z,98285.91
2023-05-12T22:23:01.365Z,98281.72
2023-05-12T22:25:29.364Z,98277.53
2023-05-12T22:27:58.564Z,98272.97
2023-05-12T22:30:26.676Z,98268.88
2023-05-12T22:32:54.605Z,98272.53
2023-05-12T22:35:22.453Z,98279.09
2023-05-12T22:37:50.879Z,98279.09
2023-05-12T22:40:21.526Z,98275.03
2023-05-12T22:42:49.542Z,98279.78
2023-05-12T22:45:19.456Z,98274.91
2023-05-12T22:47:47.293Z,98277.06
2023-05-12T22:50:15.290Z,98280.78
2023-05-12T22:52:43.145Z,98288.88
2023-05-12T22:55:11.331Z,98287.28
2023-05-12T22:57:40.975Z,98282.75
2023-05-12T23:00:09.981Z,98283.44
2023-05-12T23:02:39.520Z,98281.63
2023-05-12T23:05:08.169Z,98282.28
2023-05-12T23:07:38.365Z,98276.50
2023-05-12T23:10:07.375Z,98272.97
2023-05-12T23:12:35.444Z,98269.09
2023-05-12T23:15:03.217Z,98273.41
2023-05-12T23:17:30.948Z,98274.66
2023-05-12T23:20:01.145Z,98270.59
2023-05-12T23:22:28.927Z,98265.94
2023-05-12T23:24:58.312Z,98268.41
2023-05-12T23:27:26.737Z,98263.41
2023-05-12T23:29:54.468Z,98272.03
2023-05-12T23:32:22.351Z,98259.75
2023-05-12T23:34:50.623Z,98260.78
2023-05-12T23:37:20.288Z,98265.78
2023-05-12T23:39:48.223Z,98258.84
2023-05-12T23:42:17.300Z,98260.44
2023-05-12T23:44:45.066Z,98253.72
2023-05-12T23:47:12.742Z,98255.19
2023-05-12T23:49:40.461Z,98258.13
2023-05-12T23:52:08.486Z,98251.31
2023-05-12T23:54:37.530Z,98254.91
2023-05-12T23:57:05.722Z,98258.75
2023-05-12T23:59:34.869Z,98254.50
